• Join FlightAware (Why Join?)
  • Login
  • US Flag 
11:09PM EDT


 

Airport Tracker/Info


-or-


 

Live Flight TrackerFlight Track Log ✈ RPA3436 ✈ 31-Aug-2013 ✈ KIND - KDCA

Flight Track Log - Related Links

Times and Time Zones

All times are in EDT time to prevent confusion due to time zone crossing. See the RPA3436 flight status page for this flight to view local times or setup timezone preferences in your user account.

Time Position Orientation Groundspeed Altitude Reporting Facility
EDT Latitude Longitude Course Direction KTS MPH feet Rate Location/Type
07:46AM 39.6833 -86.3167 74° East 140 161 2,100  Level Indianapolis TRACON
07:47AM 39.6667 -86.3500 237° Southwest 158 182 3,800 1,860 Climbing Indianapolis TRACON
07:48AM 39.7708 -85.9090 83° East  Level FlightAware Approximate
07:48AM 39.6239 -86.3431 173° South 212 244 4,900  Level Indianapolis Center
07:49AM 39.7836 -85.7817 79° East  Level FlightAware Approximate
07:49AM 39.6328 -86.2617 82° East 234 269 7,600  Level Indianapolis Center
07:50AM 39.8030 -85.6558 79° East  Level FlightAware Approximate
07:50AM 39.6550 -86.1739 72° East 258 297 9,900  Level Indianapolis Center
07:51AM 39.8247 -85.5306 74° East  Level FlightAware Approximate
07:51AM 39.6853 -86.0506 72° East 305 351 12,100  Level Indianapolis Center
07:52AM 39.7131 -85.9383 72° East 325 374 14,500 2,220 Climbing Indianapolis Center
07:53AM 39.7419 -85.8228 72° East 337 388 16,700 2,100 Climbing Indianapolis Center
07:54AM 39.7711 -85.7050 72° East 343 395 18,800 1,980 Climbing Indianapolis Center
07:55AM 39.7997 -85.5856 73° East 348 400 20,700 1,680 Climbing Indianapolis Center
07:56AM 39.8292 -85.4628 73° East 355 409 22,300 1,500 Climbing Indianapolis Center
07:57AM 39.8606 -85.3375 72° East 362 417 23,800 1,260 Climbing Indianapolis Center
07:58AM 39.8867 -85.2058 75° East 372 428 24,900 1,140 Climbing Indianapolis Center
07:59AM 39.8881 -85.0631 89° East 385 443 26,100 1,320 Climbing Indianapolis Center
08:00AM 39.8889 -84.9164 90° East 397 457 27,700 1,620 Climbing Indianapolis Center
08:01AM 39.8908 -84.7658 89° East 407 468 29,500 1,560 Climbing Indianapolis Center
08:02AM 39.8914 -84.6133 90° East 414 476 30,900 1,320 Climbing Indianapolis Center
08:03AM 39.8908 -84.4617 90° East 421 484 32,300 1,020 Climbing Indianapolis Center
08:04AM 39.8911 -84.2753 90° East 428 493 33,000 300 Climbing Indianapolis Center
08:05AM 39.8919 -84.1189 90° East 433 498 33,000  Level Indianapolis Center
08:06AM 39.8919 -83.9642 90° East 429 494 33,000  Level Indianapolis Center
08:07AM 39.8914 -83.8094 90° East 427 491 33,000  Level Indianapolis Center
08:08AM 39.8917 -83.6558 90° East 425 489 33,000  Level Indianapolis Center
08:09AM 39.8908 -83.5058 90° East 426 490 33,000  Level Indianapolis Center
08:10AM 39.8906 -83.3494 90° East 430 495 33,000  Level Indianapolis Center
08:11AM 39.8886 -83.1769 91° East 430 495 33,000  Level Indianapolis Center
08:12AM 39.8875 -83.0208 90° East 430 495 33,000  Level Indianapolis Center
08:13AM 39.8858 -82.8658 91° East 429 494 33,000  Level Indianapolis Center
08:14AM 39.8844 -82.7108 91° East 429 494 33,000  Level Indianapolis Center
08:15AM 39.8786 -82.5542 93° East 433 498 33,000  Level Indianapolis Center
08:16AM 39.8531 -82.4017 102° East 430 495 33,000  Level Indianapolis Center
08:17AM 39.8300 -82.2500 101° East 430 495 33,000  Level Indianapolis Center
08:18AM 39.8069 -82.1017 101° East 421 484 33,000  Level Indianapolis Center
08:19AM 39.7828 -81.9542 102° East 418 481 33,000  Level Indianapolis Center
08:20AM 39.7581 -81.8042 102° East 423 487 33,000  Level Indianapolis Center
08:21AM 39.7336 -81.6533 102° East 425 489 33,000  Level Indianapolis Center
08:22AM 39.7092 -81.5003 102° East 432 497 33,000  Level Indianapolis Center
08:23AM 39.6803 -81.3292 102° East 430 495 33,000  Level Indianapolis Center
08:24AM 39.6553 -81.1769 102° East 430 495 33,000  Level Indianapolis Center
08:25AM 39.6294 -81.0250 102° East 430 495 33,000  Level Indianapolis Center
08:26AM 39.6039 -80.8731 102° East 430 495 33,000 -240 Level Indianapolis Center
08:27AM 39.5767 -80.7200 103° East 433 498 32,600 -480 Descending Indianapolis Center
08:28AM 39.5344 -80.5731 110° East 433 498 32,100 -540 Descending Indianapolis Center
08:29AM 39.4886 -80.4289 112° Southeast 434 499 31,600 -540 Descending Indianapolis Center
08:30AM 39.4422 -80.2822 112° Southeast 436 502 31,100 -300 Descending Indianapolis Center
08:31AM 39.3958 -80.1397 113° Southeast 431 496 31,000 -60 Descending Indianapolis Center
08:32AM 39.3497 -79.9961 113° Southeast 431 496 31,000  Level Indianapolis Center
08:33AM 39.3069 -79.8539 111° Southeast 428 493 31,000  Level Washington Center
08:34AM 39.2872 -79.7053 100° East 423 487 31,000  Level Washington Center
08:35AM 39.2756 -79.5517 96° East 418 481 31,000 -240 Level Washington Center
08:36AM 39.2639 -79.3983 96° East 418 481 30,600 -1,140 Descending Washington Center
08:37AM 39.2531 -79.2744 96° East 429 494 28,800 -1,860 Descending Washington Center
08:38AM 39.2333 -79.1019 98° East 434 499 27,000 -1,500 Descending Washington Center
08:39AM 39.2192 -78.9406 96° East 445 512 25,800 -1,800 Descending Washington Center
08:40AM 39.2047 -78.7817 97° East 445 512 23,400 -2,520 Descending Washington Center
08:41AM 39.1919 -78.6311 96° East 439 505 20,800 -2,460 Descending Washington Center
08:42AM 39.1767 -78.4861 98° East 426 490 18,500 -1,920 Descending Washington Center
08:43AM 39.1592 -78.3433 99° East 406 467 17,000 -780 Descending Washington Center
08:44AM 39.1247 -78.2083 108° East 393 452 17,000 -180 Level Washington Center
08:45AM 39.0900 -78.0761 109° East 393 452 16,700 -1,140 Descending Washington Center
08:46AM 39.0572 -77.9467 108° East 387 445 14,700 -2,100 Descending Washington Center
08:47AM 39.0242 -77.8119 107° East 375 432 12,600 -2,100 Descending Washington Center
08:48AM 38.9931 -77.6936 109° East 351 404 10,600 -1,740 Descending Washington Center
08:49AM 38.9667 -77.6167 114° Southeast 312 359 9,700 -1,500 Descending Potomac TRACON
08:50AM 38.9500 -77.5167 102° East 296 341 8,100 -1,140 Descending Potomac TRACON
08:51AM 38.9667 -77.4500 72° East 267 307 7,600 -960 Descending Potomac TRACON
08:52AM 39.0000 -77.3500 67° East 260 299 6,300 -900 Descending Potomac TRACON
08:53AM 39.0000 -77.2667 90° East 210 242 5,800 -900 Descending Potomac TRACON
08:54AM 38.9833 -77.2167 113° Southeast 191 220 4,600 -1,380 Descending Potomac TRACON
08:55AM 38.9667 -77.1500 108° East 187 215 3,100 -1,500 Descending Potomac TRACON
08:56AM 38.9333 -77.1167 142° Southeast 176 203 1,600 -1,140 Descending Potomac TRACON
08:57AM 38.9000 -77.0833 142° Southeast 130 150 900 -660 Descending Potomac TRACON
08:58AM 38.8667 -77.0500 142° Southeast 127 146 300 -600 Descending Potomac TRACON